Time;durP1;ratioP1;P1;durP2;ratioP2;P2;SDS_P1;SDS_P2;PMS_P1;PMS_P2;Temp;Humidity;BMP_temperature;BMP_pressure;BME280_temperature;BME280_humidity;BME280_pressure;Samples;Min_cycle;Max_cycle;Signal;HPM_P1;HPM_P2
2023/03/26 00:02:58;;;;;;;4.80;1.20;;;;;;;7.80;73.32;98100.30;272728;1265;22401;-85
2023/03/26 00:08:59;;;;;;;4.30;1.40;;;;;;;7.86;73.59;98107.91;272073;1265;22539;-85
2023/03/26 00:15:22;;;;;;;2.20;1.10;;;;;;;7.90;74.01;98111.59;270973;1265;22522;-84
2023/03/26 00:21:27;;;;;;;3.70;1.40;;;;;;;7.91;74.20;98118.23;270535;1267;22547;-84
2023/03/26 00:27:32;;;;;;;4.30;1.60;;;;;;;7.91;74.33;98115.50;270264;1265;23025;-85
2023/03/26 00:33:37;;;;;;;3.50;1.60;;;;;;;7.85;75.33;98101.59;271130;1265;22549;-84
2023/03/26 00:39:41;;;;;;;9.90;2.10;;;;;;;7.80;75.92;98086.53;270451;1266;22618;-84
2023/03/26 00:46:09;;;;;;;5.80;1.80;;;;;;;7.78;75.73;98082.48;270824;1266;24322;-84
2023/03/26 00:52:20;;;;;;;8.30;2.30;;;;;;;7.80;75.90;98080.30;273376;1266;22404;-84
2023/03/26 00:58:48;;;;;;;12.20;2.70;;;;;;;7.78;76.11;98078.50;271875;1265;23416;-83
2023/03/26 01:05:31;;;;;;;5.50;2.30;;;;;;;7.78;75.64;98071.96;272937;1265;22579;-84
2023/03/26 01:11:52;;;;;;;5.60;2.50;;;;;;;7.76;75.86;98065.33;272916;1266;22390;-84
2023/03/26 01:17:56;;;;;;;8.90;2.00;;;;;;;7.71;75.94;98063.88;270938;1265;22563;-85
2023/03/26 01:24:05;;;;;;;8.40;2.00;;;;;;;7.69;76.16;98066.20;272168;1265;22416;-84
2023/03/26 01:30:52;;;;;;;4.20;1.30;;;;;;;7.70;76.29;98074.79;273633;1265;22407;-85
2023/03/26 01:37:14;;;;;;;5.50;2.50;;;;;;;7.77;76.67;98097.56;273397;1264;24206;-86
2023/03/26 01:43:58;;;;;;;2.80;1.30;;;;;;;7.68;78.25;98115.64;273865;1265;22221;-84
2023/03/26 01:49:59;;;;;;;2.60;0.90;;;;;;;7.46;79.24;98094.59;273408;1265;23167;-84
2023/03/26 01:56:37;;;;;;;2.10;0.60;;;;;;;7.30;79.70;98073.42;274152;1264;22439;-84
2023/03/26 02:03:28;;;;;;;4.70;0.80;;;;;;;7.17;79.93;98055.58;273001;1266;22485;-85
2023/03/26 02:09:35;;;;;;;3.50;0.80;;;;;;;7.09;81.21;98049.27;270754;1265;22566;-84
2023/03/26 02:15:38;;;;;;;2.20;0.90;;;;;;;7.05;81.19;98050.48;273145;1256;22491;-84
2023/03/26 02:21:58;;;;;;;5.40;1.80;;;;;;;6.83;81.24;98053.22;273939;1265;22404;-84
2023/03/26 02:28:21;;;;;;;3.90;1.70;;;;;;;6.66;82.77;98046.58;274031;1265;24255;-84
2023/03/26 02:34:43;;;;;;;4.00;1.50;;;;;;;6.69;83.51;98041.33;274061;1263;22397;-84
2023/03/26 02:41:00;;;;;;;5.20;1.60;;;;;;;6.76;84.60;98045.35;273732;1264;23618;-85
2023/03/26 02:47:21;;;;;;;3.80;1.40;;;;;;;6.80;84.86;98048.20;274180;1265;22411;-84
2023/03/26 02:53:41;;;;;;;3.60;1.30;;;;;;;6.87;85.38;98049.20;274347;1266;22385;-84
2023/03/26 03:00:07;;;;;;;3.10;1.30;;;;;;;6.87;85.39;98048.51;274076;1265;22450;-84
2023/03/26 03:06:09;;;;;;;4.00;1.30;;;;;;;6.90;85.15;98047.06;273942;1266;23639;-84
2023/03/26 03:12:15;;;;;;;3.00;1.30;;;;;;;6.92;85.11;98038.62;273488;1266;23635;-86
2023/03/26 03:18:36;;;;;;;3.80;1.20;;;;;;;6.96;84.63;98038.19;273213;1266;22408;-84
2023/03/26 03:25:20;;;;;;;2.30;1.10;;;;;;;7.00;84.37;98035.73;274081;1266;23158;-84
2023/03/26 03:31:24;;;;;;;4.10;1.70;;;;;;;7.03;84.24;98033.20;272080;1266;23028;-84
2023/03/26 03:37:49;;;;;;;3.30;1.50;;;;;;;7.05;84.08;98032.70;272760;1265;22327;-84
2023/03/26 03:43:58;;;;;;;3.50;1.50;;;;;;;7.08;84.12;98033.96;271719;1254;23769;-84
2023/03/26 03:50:04;;;;;;;3.00;1.30;;;;;;;7.11;84.52;98039.88;272537;1266;135266;-84
2023/03/26 03:56:08;;;;;;;2.90;1.20;;;;;;;7.13;84.09;98042.39;270786;1265;22631;-84
2023/03/26 04:02:53;;;;;;;2.90;1.30;;;;;;;7.15;83.78;98042.71;273385;1258;22598;-84
2023/03/26 04:08:55;;;;;;;4.10;1.40;;;;;;;7.13;83.82;98042.63;272064;1266;22644;-84
2023/03/26 04:15:12;;;;;;;3.10;1.40;;;;;;;7.11;84.05;98043.16;272349;1264;22628;-84
2023/03/26 04:21:14;;;;;;;;;;;;;;;7.11;84.48;98040.59;271373;1266;24290;-83
2023/03/26 04:27:57;;;;;;;2.60;1.50;;;;;;;7.08;84.60;98034.65;271367;1266;23695;-84
2023/03/26 04:34:28;;;;;;;3.80;1.50;;;;;;;7.07;84.90;98034.33;272023;1266;22446;-84
2023/03/26 04:41:10;;;;;;;2.80;1.30;;;;;;;7.07;84.93;98022.91;271012;1259;22565;-84
2023/03/26 04:47:37;;;;;;;5.50;1.60;;;;;;;7.10;84.75;98015.69;272928;1265;23352;-84
2023/03/26 04:53:40;;;;;;;4.50;1.70;;;;;;;7.13;84.98;98010.05;272737;1265;22558;-85
2023/03/26 05:00:21;;;;;;;4.60;1.60;;;;;;;7.16;85.46;98011.55;271275;1265;22299;-85
2023/03/26 05:06:43;;;;;;;4.70;1.60;;;;;;;7.19;85.47;98016.86;271900;1265;22559;-84
2023/03/26 05:12:57;;;;;;;2.60;1.20;;;;;;;7.22;85.65;98025.05;272042;1266;23284;-85
2023/03/26 05:19:07;;;;;;;5.00;1.90;;;;;;;7.25;85.60;98029.05;274310;1264;22185;-85
2023/03/26 05:25:14;;;;;;;3.50;1.20;;;;;;;7.31;85.54;98029.34;274151;1265;22557;-85
2023/03/26 05:31:20;;;;;;;3.70;1.40;;;;;;;7.32;85.82;98021.17;274000;1265;22365;-85
2023/03/26 05:37:59;;;;;;;2.50;1.20;;;;;;;7.34;86.67;98016.52;274176;1267;23022;-85
2023/03/26 05:44:01;;;;;;;4.40;1.60;;;;;;;7.42;87.22;98019.08;272874;1265;23782;-85
2023/03/26 05:50:05;;;;;;;3.90;1.50;;;;;;;7.57;88.14;98010.39;274034;1266;23758;-85
2023/03/26 05:56:26;;;;;;;2.60;1.20;;;;;;;7.80;88.70;98001.30;273744;1255;23665;-85
2023/03/26 06:02:46;;;;;;;3.60;1.40;;;;;;;8.08;87.81;98007.29;274226;1264;22390;-84
2023/03/26 06:09:26;;;;;;;4.50;1.00;;;;;;;8.31;87.05;98011.63;274020;1266;23679;-85
2023/03/26 06:15:27;;;;;;;4.00;1.50;;;;;;;8.46;86.28;98013.88;273882;1268;22514;-85
2023/03/26 06:21:48;;;;;;;2.20;1.10;;;;;;;8.75;86.01;98019.44;274100;1266;23298;-85
2023/03/26 06:27:54;;;;;;;2.80;0.90;;;;;;;8.91;85.13;98020.09;273995;1269;23547;-85
2023/03/26 06:34:15;;;;;;;3.90;1.10;;;;;;;8.88;84.24;98017.83;274027;1266;22392;-85
2023/03/26 06:40:17;;;;;;;3.50;0.90;;;;;;;9.00;83.80;98020.96;274134;1266;23230;-85
2023/03/26 06:46:59;;;;;;;3.40;1.00;;;;;;;9.22;83.89;98030.20;274326;1262;22379;-85
2023/03/26 06:53:36;;;;;;;3.10;1.40;;;;;;;9.35;82.72;98033.64;272653;1272;22236;-85
2023/03/26 07:00:55;;;;;;;2.00;0.70;;;;;;;9.32;81.57;98034.58;264059;1305;545687;-84
2023/03/26 07:07:39;;;;;;;6.00;1.60;;;;;;;9.31;81.63;98034.41;267889;1278;22683;-85
2023/03/26 07:14:20;;;;;;;4.40;1.20;;;;;;;9.40;81.19;98040.82;271781;1282;236188;-85
2023/03/26 07:20:53;;;;;;;5.30;1.30;;;;;;;9.45;80.77;98038.71;272045;1279;22553;-84
2023/03/26 07:28:04;;;;;;;3.90;1.30;;;;;;;9.49;81.14;98040.53;270803;1278;22347;-85
2023/03/26 07:34:48;;;;;;;5.40;1.60;;;;;;;9.44;80.23;98029.83;271300;1279;22259;-84
2023/03/26 07:41:22;;;;;;;5.00;1.30;;;;;;;9.96;80.79;98018.91;272468;1275;22540;-84
2023/03/26 07:48:02;;;;;;;6.40;1.60;;;;;;;10.99;79.84;98009.36;272063;1280;22405;-85
2023/03/26 07:54:27;;;;;;;5.00;1.20;;;;;;;11.42;77.72;98008.68;272215;1276;22211;-84
2023/03/26 08:01:42;;;;;;;2.90;0.90;;;;;;;11.31;76.43;98002.27;269863;1276;22549;-84
2023/03/26 08:08:16;;;;;;;2.60;1.00;;;;;;;11.33;75.88;97996.61;269095;1274;22588;-85
2023/03/26 08:15:32;;;;;;;4.90;1.30;;;;;;;11.51;75.56;97998.42;271758;1276;22247;-84
2023/03/26 08:21:54;;;;;;;3.40;1.20;;;;;;;12.31;74.89;97996.84;271381;1280;22688;-83
2023/03/26 08:28:36;;;;;;;7.50;1.50;;;;;;;13.11;72.71;97995.89;269513;1271;22623;-84
2023/03/26 08:34:48;;;;;;;3.20;1.00;;;;;;;12.82;70.71;97993.22;269140;1275;24354;-84
2023/03/26 08:41:29;;;;;;;5.10;1.50;;;;;;;12.41;70.09;97997.83;270271;1272;22557;-85
2023/03/26 08:48:00;;;;;;;5.10;0.90;;;;;;;12.18;70.16;98000.53;269712;1273;25282;-85
2023/03/26 08:54:40;;;;;;;2.20;1.10;;;;;;;12.02;69.68;97997.95;270346;1255;22398;-84
2023/03/26 09:01:05;;;;;;;4.70;1.10;;;;;;;12.11;68.73;97992.94;271217;1272;22633;-87
2023/03/26 09:07:38;;;;;;;1.90;0.90;;;;;;;12.69;68.86;97988.21;270901;1264;22717;-85
2023/03/26 09:13:55;;;;;;;3.00;1.00;;;;;;;13.13;67.04;97986.68;270344;1273;22583;-85
2023/03/26 09:20:10;;;;;;;4.00;1.20;;;;;;;13.03;66.25;97983.67;269867;1274;22542;-86
2023/03/26 09:26:45;;;;;;;3.00;1.10;;;;;;;14.10;66.89;97983.39;270093;1274;22231;-86
2023/03/26 09:32:50;;;;;;;6.70;1.10;;;;;;;15.27;63.88;97978.38;270961;1273;22563;-85
2023/03/26 09:39:13;;;;;;;2.40;1.10;;;;;;;15.96;61.81;97972.71;272544;1273;22199;-86
2023/03/26 09:45:39;;;;;;;4.20;0.70;;;;;;;15.33;59.90;97970.10;272972;1271;23093;-85
2023/03/26 09:52:03;;;;;;;2.60;1.30;;;;;;;14.44;59.08;97970.43;269905;1273;22594;-85
2023/03/26 09:58:36;;;;;;;6.50;1.20;;;;;;;13.87;59.57;97971.53;270411;1272;22570;-85
2023/03/26 10:05:07;;;;;;;2.20;0.50;;;;;;;13.65;59.28;97967.70;269676;1273;22647;-86
2023/03/26 10:11:47;;;;;;;3.40;0.90;;;;;;;13.64;59.58;97958.11;270152;1271;22552;-84
2023/03/26 10:18:21;;;;;;;3.40;0.90;;;;;;;14.66;59.25;97948.15;270129;1263;24151;-85
2023/03/26 10:25:11;;;;;;;2.80;1.00;;;;;;;15.24;56.73;97941.48;271087;1261;22449;-86
2023/03/26 10:31:31;;;;;;;3.10;0.90;;;;;;;14.66;56.41;97935.74;270755;1272;22613;-85
2023/03/26 10:37:59;;;;;;;2.10;1.00;;;;;;;13.95;55.94;97935.39;270028;1264;22558;-85
2023/03/26 10:44:32;;;;;;;2.40;0.70;;;;;;;13.84;56.49;97927.34;271164;1270;25239;-84
2023/03/26 10:51:21;;;;;;;5.10;1.10;;;;;;;14.72;54.95;97918.73;273001;1271;22444;-84
2023/03/26 10:58:01;;;;;;;2.40;1.00;;;;;;;15.44;52.93;97913.11;272981;1261;22196;-84
2023/03/26 11:04:46;;;;;;;2.60;1.00;;;;;;;15.19;51.98;97916.19;273026;1271;23179;-85
2023/03/26 11:11:31;;;;;;;3.00;1.00;;;;;;;14.69;52.94;97914.23;272876;1271;22379;-85
2023/03/26 11:18:02;;;;;;;4.00;0.90;;;;;;;15.19;52.53;97910.90;272970;1271;22473;-85
2023/03/26 11:24:45;;;;;;;3.00;0.80;;;;;;;15.13;51.42;97902.80;272899;1272;22425;-86
2023/03/26 11:31:29;;;;;;;5.30;0.90;;;;;;;14.80;51.72;97895.00;270407;1270;23298;-88
2023/03/26 11:37:40;;;;;;;4.90;1.00;;;;;;;14.75;51.36;97902.17;271296;1270;22479;-86
2023/03/26 11:44:04;;;;;;;2.50;0.60;;;;;;;14.64;50.84;97888.11;271253;1272;23219;-87
2023/03/26 11:50:13;;;;;;;2.50;0.80;;;;;;;14.28;49.69;97882.98;269248;1272;23057;-85
2023/03/26 11:56:56;;;;;;;2.00;0.70;;;;;;;14.25;49.95;97872.66;271201;1261;22495;-83
2023/03/26 12:02:59;;;;;;;1.50;0.40;;;;;;;14.64;49.74;97866.16;271474;1271;22401;-86
2023/03/26 12:09:17;;;;;;;2.30;1.10;;;;;;;14.75;50.02;97868.34;271027;1272;22572;-85
2023/03/26 12:15:20;;;;;;;1.60;0.60;;;;;;;14.62;49.71;97861.33;269842;1272;24650;-86
2023/03/26 12:21:22;;;;;;;3.10;1.10;;;;;;;14.35;50.21;97855.02;271778;1270;22578;-86
2023/03/26 12:28:05;;;;;;;4.70;0.90;;;;;;;14.15;50.10;97854.08;271628;1256;22412;-85
2023/03/26 12:34:33;;;;;;;5.60;1.60;;;;;;;13.96;50.13;97852.52;272640;1270;22564;-85
2023/03/26 12:40:38;;;;;;;2.40;0.80;;;;;;;13.81;50.21;97849.52;270798;1272;24205;-84
2023/03/26 12:47:08;;;;;;;3.80;1.70;;;;;;;13.73;50.77;97835.92;271381;1263;22849;-85
2023/03/26 12:53:25;;;;;;;4.30;0.90;;;;;;;13.71;51.61;97836.36;272354;1270;22261;-86
2023/03/26 13:00:12;;;;;;;3.50;1.20;;;;;;;13.64;51.48;97828.32;272947;1270;22213;-86
2023/03/26 13:06:52;;;;;;;1.90;0.80;;;;;;;13.76;51.32;97810.88;273241;1271;22273;-85
2023/03/26 13:13:17;;;;;;;2.30;0.90;;;;;;;13.89;50.50;97800.95;272726;1257;22239;-86
2023/03/26 13:20:00;;;;;;;2.60;0.80;;;;;;;14.11;50.96;97790.01;271011;1265;22491;-83
2023/03/26 13:26:12;;;;;;;2.70;0.80;;;;;;;14.24;49.39;97789.19;273743;1268;22396;-85
2023/03/26 13:32:45;;;;;;;4.40;1.30;;;;;;;14.07;49.32;97787.11;273544;1267;22383;-85
2023/03/26 13:39:25;;;;;;;4.60;1.20;;;;;;;13.84;49.56;97785.02;271812;1267;22575;-85
2023/03/26 13:45:48;;;;;;;2.10;0.80;;;;;;;13.83;49.92;97776.46;270926;1251;25459;-85
2023/03/26 13:52:23;;;;;;;2.50;1.10;;;;;;;14.08;49.96;97766.39;271002;1270;22382;-85
2023/03/26 13:58:47;;;;;;;;;;;;;;;13.95;50.08;97761.65;273070;1272;22579;-85
2023/03/26 14:04:54;;;;;;;2.50;1.20;;;;;;;13.88;50.59;97756.16;272750;1272;22392;-86
2023/03/26 14:11:13;;;;;;;4.70;1.20;;;;;;;13.97;50.42;97749.28;272395;1273;23566;-86
2023/03/26 14:18:04;;;;;;;1.60;0.80;;;;;;;13.92;49.64;97752.84;272407;1271;23173;-85
2023/03/26 14:24:59;;;;;;;7.40;1.10;;;;;;;13.83;49.83;97751.39;272788;1272;22406;-87
2023/03/26 14:31:54;;;;;;;2.30;0.90;;;;;;;13.66;49.93;97751.20;273852;1268;22373;-86
2023/03/26 14:38:53;;;;;;;8.70;1.10;;;;;;;13.53;50.06;97747.41;272562;1260;23557;-85
2023/03/26 14:45:08;;;;;;;5.50;1.40;;;;;;;13.46;50.22;97748.32;273398;1268;22401;-85
2023/03/26 14:51:37;;;;;;;2.70;1.20;;;;;;;13.38;50.61;97747.70;273706;1256;22880;-85
2023/03/26 14:58:26;;;;;;;4.80;1.30;;;;;;;13.25;50.57;97741.67;273533;1257;22432;-86
2023/03/26 15:05:22;;;;;;;7.10;1.20;;;;;;;13.23;50.88;97735.90;273695;1268;22536;-86
2023/03/26 15:11:59;;;;;;;4.90;1.30;;;;;;;13.25;50.95;97727.46;271303;1267;22576;-85
2023/03/26 15:18:38;;;;;;;4.60;1.60;;;;;;;13.22;50.72;97723.36;271431;1267;23908;-85
2023/03/26 15:25:11;;;;;;;2.20;1.20;;;;;;;13.17;50.76;97722.52;270483;1267;22627;-85
2023/03/26 15:31:35;;;;;;;3.30;1.10;;;;;;;13.03;50.49;97718.69;273273;1268;22414;-85
2023/03/26 15:37:53;;;;;;;3.90;1.20;;;;;;;12.89;50.22;97718.08;272563;1262;23923;-85
2023/03/26 15:43:56;;;;;;;2.80;1.20;;;;;;;12.74;50.26;97717.23;272226;1268;22637;-85
2023/03/26 15:50:36;;;;;;;4.20;1.20;;;;;;;12.57;50.71;97714.71;271766;1268;23581;-86
2023/03/26 15:57:02;;;;;;;4.30;1.70;;;;;;;12.48;50.43;97711.65;273753;1258;22487;-86
2023/03/26 16:03:10;;;;;;;3.60;1.70;;;;;;;12.49;50.12;97703.02;273456;1265;22608;-85
2023/03/26 16:09:39;;;;;;;5.90;1.80;;;;;;;12.50;50.32;97697.12;271375;1256;22557;-86
2023/03/26 16:15:42;;;;;;;5.00;2.10;;;;;;;12.49;50.55;97691.19;271034;1267;22562;-85
2023/03/26 16:22:34;;;;;;;3.00;1.30;;;;;;;12.41;50.44;97688.34;270617;1270;22650;-85
2023/03/26 16:29:01;;;;;;;3.90;1.40;;;;;;;12.23;50.77;97684.79;272525;1266;22446;-86
2023/03/26 16:35:40;;;;;;;4.70;1.30;;;;;;;12.04;51.39;97683.69;272198;1269;22302;-85
2023/03/26 16:41:45;;;;;;;5.90;1.20;;;;;;;11.79;51.91;97680.00;271668;1267;23235;-85
2023/03/26 16:48:03;;;;;;;2.00;1.00;;;;;;;11.49;51.78;97685.95;272071;1263;22351;-87
2023/03/26 16:54:38;;;;;;;3.80;1.50;;;;;;;11.28;51.72;97686.31;271072;1268;22722;-85
2023/03/26 17:01:53;;;;;;;3.30;1.70;;;;;;;11.08;51.81;97682.15;271121;1269;23827;-86
2023/03/26 17:08:26;;;;;;;4.70;2.30;;;;;;;10.92;52.09;97681.03;273584;1269;24165;-87
2023/03/26 17:14:50;;;;;;;7.10;2.90;;;;;;;10.76;52.19;97673.14;272892;1268;22279;-85
2023/03/26 17:21:08;;;;;;;7.50;2.80;;;;;;;10.59;52.69;97673.08;272806;1269;22558;-85
2023/03/26 17:27:48;;;;;;;6.00;2.70;;;;;;;10.37;53.04;97670.16;273188;1268;24044;-86
2023/03/26 17:34:30;;;;;;;5.90;3.00;;;;;;;10.11;53.54;97674.13;273394;1269;22388;-86
2023/03/26 17:40:57;;;;;;;6.50;3.10;;;;;;;9.83;54.17;97679.70;271915;1268;23188;-86
2023/03/26 17:46:59;;;;;;;7.90;3.30;;;;;;;9.55;54.61;97675.74;272253;1268;22533;-85
2023/03/26 17:54:01;;;;;;;6.90;4.00;;;;;;;9.32;55.02;97676.42;272042;1268;22600;-85
2023/03/26 18:00:10;;;;;;;8.10;4.30;;;;;;;9.15;55.94;97678.14;271118;1275;22397;-85
2023/03/26 18:06:19;;;;;;;11.10;6.00;;;;;;;8.93;56.59;97676.50;271340;1268;22297;-85
2023/03/26 18:13:05;;;;;;;9.80;5.30;;;;;;;8.76;57.01;97678.82;270158;1269;22541;-85
2023/03/26 18:19:52;;;;;;;13.00;5.50;;;;;;;8.61;57.90;97681.43;270034;1261;22610;-85
2023/03/26 18:26:11;;;;;;;12.10;5.80;;;;;;;8.46;58.98;97679.52;271000;1269;22527;-86
2023/03/26 18:32:59;;;;;;;10.30;5.10;;;;;;;8.40;59.26;97672.20;271266;1268;25620;-86
2023/03/26 18:39:22;;;;;;;11.20;4.80;;;;;;;8.47;59.12;97669.93;270823;1269;23620;-86
2023/03/26 18:45:30;;;;;;;8.70;4.30;;;;;;;8.66;59.03;97665.76;271032;1268;25357;-85
2023/03/26 18:52:12;;;;;;;11.70;4.60;;;;;;;8.84;59.48;97663.76;272097;1265;22623;-85
2023/03/26 18:58:54;;;;;;;11.00;4.30;;;;;;;8.97;59.82;97674.07;272330;1271;22500;-84
2023/03/26 19:04:56;;;;;;;12.50;4.80;;;;;;;8.99;60.61;97671.27;271333;1271;22562;-85
2023/03/26 19:11:03;;;;;;;12.60;5.60;;;;;;;9.01;60.93;97667.99;266475;1268;6177126;-85
2023/03/26 19:17:28;;;;;;;;;;;;;;;9.03;61.14;97662.75;271348;1269;24261;-85
2023/03/26 19:24:33;;;;;;;14.60;7.00;;;;;;;9.06;61.92;97660.71;271898;1273;25288;-85
2023/03/26 19:30:38;;;;;;;11.30;4.60;;;;;;;9.09;61.90;97664.90;273100;1268;22560;-85
2023/03/26 19:37:34;;;;;;;5.30;1.50;;;;;;;9.23;61.86;97667.65;271538;1269;23358;-85
2023/03/26 19:44:13;;;;;;;3.90;1.30;;;;;;;9.36;62.47;97671.41;271853;1272;22570;-84
2023/03/26 19:50:24;;;;;;;4.10;1.80;;;;;;;9.34;63.74;97670.64;272213;1269;22435;-85
2023/03/26 19:56:27;;;;;;;6.30;1.50;;;;;;;9.27;65.47;97672.30;272799;1270;22631;-85
2023/03/26 20:02:29;;;;;;;7.70;1.90;;;;;;;9.15;67.01;97670.96;271709;1270;22979;-84
2023/03/26 20:08:59;;;;;;;10.70;3.00;;;;;;;8.99;68.14;97668.70;270464;1270;22560;-84
2023/03/26 20:15:42;;;;;;;6.90;2.60;;;;;;;8.87;69.38;97667.34;270756;1271;22520;-84
2023/03/26 20:21:44;;;;;;;10.00;3.50;;;;;;;8.76;71.24;97669.71;269958;1271;22545;-85
2023/03/26 20:27:54;;;;;;;9.50;3.60;;;;;;;8.63;72.67;97669.20;273394;1271;22430;-85
2023/03/26 20:33:58;;;;;;;8.10;3.30;;;;;;;8.52;73.10;97665.09;273376;1272;22329;-83
2023/03/26 20:39:59;;;;;;;7.50;3.50;;;;;;;8.44;74.12;97655.52;272504;1269;22714;-85
2023/03/26 20:46:02;;;;;;;9.50;3.10;;;;;;;8.39;75.33;97646.98;273275;1272;22492;-85
2023/03/26 20:52:04;;;;;;;8.80;3.10;;;;;;;8.34;75.73;97634.66;273128;1269;23182;-85
2023/03/26 20:58:56;;;;;;;7.60;3.20;;;;;;;8.24;76.02;97621.65;273239;1269;22196;-85
2023/03/26 21:04:58;;;;;;;9.00;3.90;;;;;;;8.19;77.43;97604.89;272920;1271;22393;-85
2023/03/26 21:11:42;;;;;;;9.40;3.60;;;;;;;8.12;77.94;97593.23;272258;1271;22401;-85
2023/03/26 21:17:44;;;;;;;14.00;5.00;;;;;;;8.07;78.87;97590.83;273549;1268;23496;-85
2023/03/26 21:24:13;;;;;;;15.00;5.30;;;;;;;7.95;79.41;97583.99;273612;1270;22474;-85
2023/03/26 21:30:18;;;;;;;9.90;5.80;;;;;;;7.85;80.02;97574.11;273384;1271;22327;-85
2023/03/26 21:36:20;;;;;;;14.80;5.40;;;;;;;7.82;80.82;97574.34;273240;1264;23149;-85
2023/03/26 21:42:25;;;;;;;10.90;5.80;;;;;;;7.77;81.42;97580.73;269393;1270;22610;-84
2023/03/26 21:48:27;;;;;;;15.70;7.60;;;;;;;7.80;82.51;97585.02;270026;1256;25345;-84
2023/03/26 21:54:31;;;;;;;14.00;7.10;;;;;;;7.83;82.90;97599.41;270248;1262;22601;-83
2023/03/26 22:00:55;;;;;;;13.70;6.70;;;;;;;7.77;83.06;97604.32;271028;1272;23715;-83
2023/03/26 22:07:13;;;;;;;16.90;6.60;;;;;;;7.74;83.99;97595.45;273777;1271;22300;-82
2023/03/26 22:13:15;;;;;;;13.00;7.80;;;;;;;7.67;84.53;97581.05;273140;1257;22553;-82
2023/03/26 22:19:16;;;;;;;12.20;7.00;;;;;;;7.60;84.69;97570.39;272416;1273;22571;-83
2023/03/26 22:25:19;;;;;;;13.30;8.00;;;;;;;7.48;83.76;97565.02;271237;1270;22535;-83
2023/03/26 22:31:24;;;;;;;14.30;9.30;;;;;;;7.37;84.78;97566.48;272902;1269;23773;-83
2023/03/26 22:37:36;;;;;;;14.20;9.10;;;;;;;7.35;85.23;97560.50;272903;1269;22388;-83
2023/03/26 22:43:38;;;;;;;16.70;11.40;;;;;;;7.33;86.55;97551.95;273658;1270;23108;-83
2023/03/26 22:49:40;;;;;;;15.70;9.50;;;;;;;7.33;86.94;97545.26;273619;1270;22486;-83
2023/03/26 22:55:42;;;;;;;17.80;11.10;;;;;;;7.26;86.91;97539.02;273542;1271;22528;-84
2023/03/26 23:01:44;;;;;;;16.00;8.80;;;;;;;7.21;87.60;97533.34;270319;1271;22548;-82
2023/03/26 23:07:46;;;;;;;23.00;11.60;;;;;;;7.16;88.44;97512.25;270311;1265;24368;-83
2023/03/26 23:13:50;;;;;;;21.00;12.00;;;;;;;7.10;89.06;97502.54;270278;1270;23725;-83
2023/03/26 23:19:55;;;;;;;21.10;10.80;;;;;;;7.07;89.61;97499.90;271068;1270;27679;-83
2023/03/26 23:25:59;;;;;;;15.20;10.20;;;;;;;7.06;90.10;97496.02;270979;1269;25414;-84
2023/03/26 23:32:01;;;;;;;16.40;9.60;;;;;;;7.06;90.15;97496.48;273564;1268;22282;-84
2023/03/26 23:38:05;;;;;;;16.00;8.20;;;;;;;7.06;90.63;97495.93;273559;1272;22294;-84
2023/03/26 23:44:12;;;;;;;14.20;7.80;;;;;;;7.08;91.20;97488.78;273610;1271;22390;-84
2023/03/26 23:50:15;;;;;;;18.70;8.60;;;;;;;7.05;91.28;97478.52;270917;1270;22534;-84
2023/03/26 23:56:17;;;;;;;22.20;10.00;;;;;;;6.99;91.54;97462.66;272082;1261;22470;-84
